sensor_id;sensor_type;location;lat;lon;timestamp;P1;durP1;ratioP1;P2;durP2;ratioP2
8881;SDS011;4477;48.736;9.176;2022-10-16T00:02:15;2.23;;;2.00;;
8881;SDS011;4477;48.736;9.176;2022-10-16T00:04:42;5.67;;;1.93;;
8881;SDS011;4477;48.736;9.176;2022-10-16T00:07:09;2.40;;;2.20;;
8881;SDS011;4477;48.736;9.176;2022-10-16T00:09:36;3.10;;;2.57;;
8881;SDS011;4477;48.736;9.176;2022-10-16T00:12:04;3.23;;;2.37;;
8881;SDS011;4477;48.736;9.176;2022-10-16T00:14:31;5.40;;;2.70;;
8881;SDS011;4477;48.736;9.176;2022-10-16T00:16:58;3.03;;;2.70;;
8881;SDS011;4477;48.736;9.176;2022-10-16T00:19:25;3.93;;;2.50;;
8881;SDS011;4477;48.736;9.176;2022-10-16T00:21:52;6.00;;;2.60;;
8881;SDS011;4477;48.736;9.176;2022-10-16T00:24:19;4.30;;;2.50;;
8881;SDS011;4477;48.736;9.176;2022-10-16T00:26:46;3.33;;;3.03;;
8881;SDS011;4477;48.736;9.176;2022-10-16T00:29:17;4.20;;;3.13;;
8881;SDS011;4477;48.736;9.176;2022-10-16T00:31:44;4.23;;;2.87;;
8881;SDS011;4477;48.736;9.176;2022-10-16T00:34:11;4.07;;;2.90;;
8881;SDS011;4477;48.736;9.176;2022-10-16T00:36:38;4.17;;;2.87;;
8881;SDS011;4477;48.736;9.176;2022-10-16T00:39:05;3.50;;;3.13;;
8881;SDS011;4477;48.736;9.176;2022-10-16T00:41:32;3.30;;;3.00;;
8881;SDS011;4477;48.736;9.176;2022-10-16T00:43:59;4.60;;;2.83;;
8881;SDS011;4477;48.736;9.176;2022-10-16T00:46:29;6.37;;;3.43;;
8881;SDS011;4477;48.736;9.176;2022-10-16T00:49:03;3.57;;;3.10;;
8881;SDS011;4477;48.736;9.176;2022-10-16T00:51:33;5.70;;;3.30;;
8881;SDS011;4477;48.736;9.176;2022-10-16T00:54:03;4.30;;;3.10;;
8881;SDS011;4477;48.736;9.176;2022-10-16T00:56:34;4.27;;;2.70;;
8881;SDS011;4477;48.736;9.176;2022-10-16T00:59:02;5.90;;;3.10;;
8881;SDS011;4477;48.736;9.176;2022-10-16T01:01:33;4.93;;;3.23;;
8881;SDS011;4477;48.736;9.176;2022-10-16T01:03:59;5.47;;;3.67;;
8881;SDS011;4477;48.736;9.176;2022-10-16T01:06:28;4.23;;;3.33;;
8881;SDS011;4477;48.736;9.176;2022-10-16T01:09:08;5.07;;;3.27;;
8881;SDS011;4477;48.736;9.176;2022-10-16T01:11:44;5.07;;;3.40;;
8881;SDS011;4477;48.736;9.176;2022-10-16T01:14:20;5.07;;;3.57;;
8881;SDS011;4477;48.736;9.176;2022-10-16T01:16:53;4.20;;;3.10;;
8881;SDS011;4477;48.736;9.176;2022-10-16T01:19:31;8.67;;;3.53;;
8881;SDS011;4477;48.736;9.176;2022-10-16T01:22:10;4.53;;;3.10;;
8881;SDS011;4477;48.736;9.176;2022-10-16T01:24:38;5.37;;;3.10;;
8881;SDS011;4477;48.736;9.176;2022-10-16T01:27:11;3.73;;;3.10;;
8881;SDS011;4477;48.736;9.176;2022-10-16T01:29:41;3.87;;;3.10;;
8881;SDS011;4477;48.736;9.176;2022-10-16T01:32:15;4.13;;;3.13;;
8881;SDS011;4477;48.736;9.176;2022-10-16T01:34:47;3.47;;;3.17;;
8881;SDS011;4477;48.736;9.176;2022-10-16T01:37:18;3.73;;;3.40;;
8881;SDS011;4477;48.736;9.176;2022-10-16T01:39:51;4.57;;;3.33;;
8881;SDS011;4477;48.736;9.176;2022-10-16T01:42:26;5.30;;;3.47;;
8881;SDS011;4477;48.736;9.176;2022-10-16T01:44:58;4.07;;;3.37;;
8881;SDS011;4477;48.736;9.176;2022-10-16T01:47:28;5.93;;;3.57;;
8881;SDS011;4477;48.736;9.176;2022-10-16T01:49:56;3.53;;;3.23;;
8881;SDS011;4477;48.736;9.176;2022-10-16T01:52:25;3.63;;;3.30;;
8881;SDS011;4477;48.736;9.176;2022-10-16T01:54:54;4.20;;;3.40;;
8881;SDS011;4477;48.736;9.176;2022-10-16T01:57:25;7.37;;;3.17;;
8881;SDS011;4477;48.736;9.176;2022-10-16T01:59:54;3.93;;;3.50;;
8881;SDS011;4477;48.736;9.176;2022-10-16T02:02:26;9.73;;;4.10;;
8881;SDS011;4477;48.736;9.176;2022-10-16T02:04:56;5.10;;;3.60;;
8881;SDS011;4477;48.736;9.176;2022-10-16T02:07:27;4.17;;;3.50;;
8881;SDS011;4477;48.736;9.176;2022-10-16T02:09:55;7.47;;;3.70;;
8881;SDS011;4477;48.736;9.176;2022-10-16T02:12:23;4.23;;;3.40;;
8881;SDS011;4477;48.736;9.176;2022-10-16T02:14:54;7.50;;;3.50;;
8881;SDS011;4477;48.736;9.176;2022-10-16T02:17:22;4.93;;;3.27;;
8881;SDS011;4477;48.736;9.176;2022-10-16T02:19:49;3.70;;;3.20;;
8881;SDS011;4477;48.736;9.176;2022-10-16T02:22:21;3.77;;;3.47;;
8881;SDS011;4477;48.736;9.176;2022-10-16T02:24:53;3.97;;;2.80;;
8881;SDS011;4477;48.736;9.176;2022-10-16T02:27:24;9.27;;;3.23;;
8881;SDS011;4477;48.736;9.176;2022-10-16T02:29:59;3.37;;;2.80;;
8881;SDS011;4477;48.736;9.176;2022-10-16T02:32:33;3.60;;;2.73;;
8881;SDS011;4477;48.736;9.176;2022-10-16T02:35:02;3.60;;;3.10;;
8881;SDS011;4477;48.736;9.176;2022-10-16T02:37:30;3.43;;;2.80;;
8881;SDS011;4477;48.736;9.176;2022-10-16T02:39:58;4.00;;;3.13;;
8881;SDS011;4477;48.736;9.176;2022-10-16T02:42:31;5.73;;;3.27;;
8881;SDS011;4477;48.736;9.176;2022-10-16T02:45:01;3.73;;;3.10;;
8881;SDS011;4477;48.736;9.176;2022-10-16T02:47:28;5.30;;;3.80;;
8881;SDS011;4477;48.736;9.176;2022-10-16T02:49:55;4.77;;;3.10;;
8881;SDS011;4477;48.736;9.176;2022-10-16T02:52:22;5.50;;;3.30;;
8881;SDS011;4477;48.736;9.176;2022-10-16T02:54:49;9.73;;;3.10;;
8881;SDS011;4477;48.736;9.176;2022-10-16T02:57:16;3.63;;;3.13;;
8881;SDS011;4477;48.736;9.176;2022-10-16T02:59:45;4.90;;;3.40;;
8881;SDS011;4477;48.736;9.176;2022-10-16T03:02:12;4.40;;;2.83;;
8881;SDS011;4477;48.736;9.176;2022-10-16T03:04:39;8.87;;;3.40;;
8881;SDS011;4477;48.736;9.176;2022-10-16T03:07:06;3.07;;;2.80;;
8881;SDS011;4477;48.736;9.176;2022-10-16T03:09:32;4.27;;;2.37;;
8881;SDS011;4477;48.736;9.176;2022-10-16T03:11:59;3.87;;;2.50;;
8881;SDS011;4477;48.736;9.176;2022-10-16T03:14:26;4.03;;;2.77;;
8881;SDS011;4477;48.736;9.176;2022-10-16T03:16:54;2.90;;;2.50;;
8881;SDS011;4477;48.736;9.176;2022-10-16T03:19:21;2.80;;;2.43;;
8881;SDS011;4477;48.736;9.176;2022-10-16T03:21:48;3.00;;;2.70;;
8881;SDS011;4477;48.736;9.176;2022-10-16T03:24:15;4.43;;;2.43;;
8881;SDS011;4477;48.736;9.176;2022-10-16T03:26:42;2.73;;;2.40;;
8881;SDS011;4477;48.736;9.176;2022-10-16T03:29:08;3.50;;;2.40;;
8881;SDS011;4477;48.736;9.176;2022-10-16T03:31:35;5.13;;;2.40;;
8881;SDS011;4477;48.736;9.176;2022-10-16T03:34:03;3.77;;;2.47;;
8881;SDS011;4477;48.736;9.176;2022-10-16T03:36:30;4.10;;;2.60;;
8881;SDS011;4477;48.736;9.176;2022-10-16T03:38:57;5.50;;;2.10;;
8881;SDS011;4477;48.736;9.176;2022-10-16T03:41:24;3.63;;;2.40;;
8881;SDS011;4477;48.736;9.176;2022-10-16T03:43:51;2.40;;;2.20;;
8881;SDS011;4477;48.736;9.176;2022-10-16T03:46:18;4.10;;;2.30;;
8881;SDS011;4477;48.736;9.176;2022-10-16T03:48:45;2.57;;;2.30;;
8881;SDS011;4477;48.736;9.176;2022-10-16T03:51:13;4.93;;;2.33;;
8881;SDS011;4477;48.736;9.176;2022-10-16T03:53:40;3.27;;;2.20;;
8881;SDS011;4477;48.736;9.176;2022-10-16T03:56:07;2.13;;;1.77;;
8881;SDS011;4477;48.736;9.176;2022-10-16T03:58:34;3.43;;;2.23;;
8881;SDS011;4477;48.736;9.176;2022-10-16T04:01:00;3.27;;;1.90;;
8881;SDS011;4477;48.736;9.176;2022-10-16T04:03:27;2.87;;;2.10;;
8881;SDS011;4477;48.736;9.176;2022-10-16T04:05:54;6.83;;;1.70;;
8881;SDS011;4477;48.736;9.176;2022-10-16T04:08:23;2.13;;;1.67;;
8881;SDS011;4477;48.736;9.176;2022-10-16T04:10:49;2.73;;;1.77;;
8881;SDS011;4477;48.736;9.176;2022-10-16T04:13:16;1.97;;;1.70;;
8881;SDS011;4477;48.736;9.176;2022-10-16T04:15:44;3.67;;;1.67;;
8881;SDS011;4477;48.736;9.176;2022-10-16T04:18:11;1.90;;;1.53;;
8881;SDS011;4477;48.736;9.176;2022-10-16T04:20:38;2.30;;;1.50;;
8881;SDS011;4477;48.736;9.176;2022-10-16T04:23:05;5.50;;;1.90;;
8881;SDS011;4477;48.736;9.176;2022-10-16T04:25:33;5.30;;;1.60;;
8881;SDS011;4477;48.736;9.176;2022-10-16T04:28:00;3.43;;;1.33;;
8881;SDS011;4477;48.736;9.176;2022-10-16T04:30:27;3.60;;;1.67;;
8881;SDS011;4477;48.736;9.176;2022-10-16T04:32:54;3.67;;;1.60;;
8881;SDS011;4477;48.736;9.176;2022-10-16T04:35:21;3.27;;;1.50;;
8881;SDS011;4477;48.736;9.176;2022-10-16T04:37:48;4.37;;;1.90;;
8881;SDS011;4477;48.736;9.176;2022-10-16T04:40:15;2.23;;;1.93;;
8881;SDS011;4477;48.736;9.176;2022-10-16T04:42:44;5.07;;;1.90;;
8881;SDS011;4477;48.736;9.176;2022-10-16T04:45:10;6.27;;;1.90;;
8881;SDS011;4477;48.736;9.176;2022-10-16T04:47:37;5.23;;;2.10;;
8881;SDS011;4477;48.736;9.176;2022-10-16T04:50:04;1.97;;;1.83;;
8881;SDS011;4477;48.736;9.176;2022-10-16T04:52:32;3.57;;;2.00;;
8881;SDS011;4477;48.736;9.176;2022-10-16T04:54:59;3.97;;;2.00;;
8881;SDS011;4477;48.736;9.176;2022-10-16T04:57:27;3.17;;;2.20;;
8881;SDS011;4477;48.736;9.176;2022-10-16T04:59:56;2.43;;;2.20;;
8881;SDS011;4477;48.736;9.176;2022-10-16T05:02:23;3.70;;;2.27;;
8881;SDS011;4477;48.736;9.176;2022-10-16T05:04:49;5.37;;;2.50;;
8881;SDS011;4477;48.736;9.176;2022-10-16T05:07:17;5.07;;;2.43;;
8881;SDS011;4477;48.736;9.176;2022-10-16T05:09:43;3.50;;;2.30;;
8881;SDS011;4477;48.736;9.176;2022-10-16T05:12:10;2.93;;;2.30;;
8881;SDS011;4477;48.736;9.176;2022-10-16T05:14:37;3.80;;;2.50;;
8881;SDS011;4477;48.736;9.176;2022-10-16T05:17:05;4.00;;;2.57;;
8881;SDS011;4477;48.736;9.176;2022-10-16T05:19:32;5.40;;;2.77;;
8881;SDS011;4477;48.736;9.176;2022-10-16T05:21:59;3.40;;;2.50;;
8881;SDS011;4477;48.736;9.176;2022-10-16T05:24:26;2.70;;;2.50;;
8881;SDS011;4477;48.736;9.176;2022-10-16T05:26:53;7.77;;;2.60;;
8881;SDS011;4477;48.736;9.176;2022-10-16T05:29:20;6.40;;;3.27;;
8881;SDS011;4477;48.736;9.176;2022-10-16T05:31:49;2.73;;;2.53;;
8881;SDS011;4477;48.736;9.176;2022-10-16T05:34:18;5.30;;;2.80;;
8881;SDS011;4477;48.736;9.176;2022-10-16T05:36:45;6.13;;;3.00;;
8881;SDS011;4477;48.736;9.176;2022-10-16T05:39:13;7.50;;;3.03;;
8881;SDS011;4477;48.736;9.176;2022-10-16T05:41:41;7.43;;;2.80;;
8881;SDS011;4477;48.736;9.176;2022-10-16T05:44:07;3.03;;;2.53;;
8881;SDS011;4477;48.736;9.176;2022-10-16T05:46:34;2.90;;;2.50;;
8881;SDS011;4477;48.736;9.176;2022-10-16T05:49:01;5.27;;;2.57;;
8881;SDS011;4477;48.736;9.176;2022-10-16T05:51:29;5.23;;;3.20;;
8881;SDS011;4477;48.736;9.176;2022-10-16T05:53:56;4.60;;;2.63;;
8881;SDS011;4477;48.736;9.176;2022-10-16T05:56:23;4.07;;;3.77;;
8881;SDS011;4477;48.736;9.176;2022-10-16T05:58:50;6.83;;;2.80;;
8881;SDS011;4477;48.736;9.176;2022-10-16T06:01:17;3.70;;;2.87;;
8881;SDS011;4477;48.736;9.176;2022-10-16T06:03:45;3.10;;;2.63;;
8881;SDS011;4477;48.736;9.176;2022-10-16T06:06:13;5.87;;;3.57;;
8881;SDS011;4477;48.736;9.176;2022-10-16T06:08:43;6.00;;;3.93;;
8881;SDS011;4477;48.736;9.176;2022-10-16T06:11:13;3.90;;;3.50;;
8881;SDS011;4477;48.736;9.176;2022-10-16T06:13:42;3.83;;;3.30;;
8881;SDS011;4477;48.736;9.176;2022-10-16T06:16:11;5.73;;;4.10;;
8881;SDS011;4477;48.736;9.176;2022-10-16T06:18:38;4.83;;;3.83;;
8881;SDS011;4477;48.736;9.176;2022-10-16T06:21:08;4.87;;;3.87;;
8881;SDS011;4477;48.736;9.176;2022-10-16T06:23:36;3.67;;;3.37;;
8881;SDS011;4477;48.736;9.176;2022-10-16T06:26:05;3.87;;;2.70;;
8881;SDS011;4477;48.736;9.176;2022-10-16T06:28:33;5.37;;;3.10;;
8881;SDS011;4477;48.736;9.176;2022-10-16T06:31:00;4.00;;;2.83;;
8881;SDS011;4477;48.736;9.176;2022-10-16T06:33:27;3.37;;;2.40;;
8881;SDS011;4477;48.736;9.176;2022-10-16T06:35:59;4.30;;;2.20;;
8881;SDS011;4477;48.736;9.176;2022-10-16T06:38:26;3.53;;;2.10;;
8881;SDS011;4477;48.736;9.176;2022-10-16T06:40:53;3.30;;;2.10;;
8881;SDS011;4477;48.736;9.176;2022-10-16T06:43:22;4.00;;;2.13;;
8881;SDS011;4477;48.736;9.176;2022-10-16T06:45:51;4.27;;;2.17;;
8881;SDS011;4477;48.736;9.176;2022-10-16T06:48:19;3.93;;;1.43;;
8881;SDS011;4477;48.736;9.176;2022-10-16T06:50:54;4.47;;;1.70;;
8881;SDS011;4477;48.736;9.176;2022-10-16T06:53:22;4.93;;;1.90;;
8881;SDS011;4477;48.736;9.176;2022-10-16T06:55:49;2.07;;;1.50;;
8881;SDS011;4477;48.736;9.176;2022-10-16T06:58:19;2.20;;;2.00;;
8881;SDS011;4477;48.736;9.176;2022-10-16T07:00:47;4.57;;;1.87;;
8881;SDS011;4477;48.736;9.176;2022-10-16T07:03:14;3.97;;;1.63;;
8881;SDS011;4477;48.736;9.176;2022-10-16T07:05:41;2.90;;;1.50;;
8881;SDS011;4477;48.736;9.176;2022-10-16T07:08:09;5.20;;;1.90;;
8881;SDS011;4477;48.736;9.176;2022-10-16T07:10:35;3.77;;;1.63;;
8881;SDS011;4477;48.736;9.176;2022-10-16T07:13:03;3.43;;;1.40;;
8881;SDS011;4477;48.736;9.176;2022-10-16T07:15:30;3.30;;;1.70;;
8881;SDS011;4477;48.736;9.176;2022-10-16T07:17:58;2.47;;;1.57;;
8881;SDS011;4477;48.736;9.176;2022-10-16T07:20:25;1.47;;;1.20;;
8881;SDS011;4477;48.736;9.176;2022-10-16T07:22:52;1.60;;;1.30;;
8881;SDS011;4477;48.736;9.176;2022-10-16T07:25:19;2.50;;;1.37;;
8881;SDS011;4477;48.736;9.176;2022-10-16T07:27:45;3.03;;;1.80;;
8881;SDS011;4477;48.736;9.176;2022-10-16T07:30:12;1.90;;;1.60;;
8881;SDS011;4477;48.736;9.176;2022-10-16T07:32:39;5.23;;;1.77;;
8881;SDS011;4477;48.736;9.176;2022-10-16T07:35:08;2.73;;;1.50;;
8881;SDS011;4477;48.736;9.176;2022-10-16T07:37:34;2.40;;;1.50;;
8881;SDS011;4477;48.736;9.176;2022-10-16T07:40:01;2.50;;;1.63;;
8881;SDS011;4477;48.736;9.176;2022-10-16T07:42:29;6.00;;;1.77;;
8881;SDS011;4477;48.736;9.176;2022-10-16T07:44:56;6.43;;;2.00;;
8881;SDS011;4477;48.736;9.176;2022-10-16T07:47:22;2.27;;;1.80;;
8881;SDS011;4477;48.736;9.176;2022-10-16T07:49:49;2.83;;;1.37;;
8881;SDS011;4477;48.736;9.176;2022-10-16T07:52:18;2.40;;;1.40;;
8881;SDS011;4477;48.736;9.176;2022-10-16T07:54:44;4.60;;;1.50;;
8881;SDS011;4477;48.736;9.176;2022-10-16T07:57:11;4.03;;;1.60;;
8881;SDS011;4477;48.736;9.176;2022-10-16T07:59:43;2.93;;;1.33;;
8881;SDS011;4477;48.736;9.176;2022-10-16T08:02:10;2.17;;;1.50;;
8881;SDS011;4477;48.736;9.176;2022-10-16T08:04:37;4.60;;;1.80;;
8881;SDS011;4477;48.736;9.176;2022-10-16T08:07:04;7.87;;;1.67;;
8881;SDS011;4477;48.736;9.176;2022-10-16T08:09:34;3.83;;;1.43;;
8881;SDS011;4477;48.736;9.176;2022-10-16T08:12:01;4.70;;;2.10;;
8881;SDS011;4477;48.736;9.176;2022-10-16T08:14:29;3.50;;;1.70;;
8881;SDS011;4477;48.736;9.176;2022-10-16T08:16:55;3.23;;;1.60;;
8881;SDS011;4477;48.736;9.176;2022-10-16T08:19:22;2.80;;;1.60;;
8881;SDS011;4477;48.736;9.176;2022-10-16T08:21:49;3.00;;;1.50;;
8881;SDS011;4477;48.736;9.176;2022-10-16T08:24:16;3.90;;;1.40;;
8881;SDS011;4477;48.736;9.176;2022-10-16T08:26:44;5.00;;;1.43;;
8881;SDS011;4477;48.736;9.176;2022-10-16T08:29:11;6.90;;;1.53;;
8881;SDS011;4477;48.736;9.176;2022-10-16T08:31:39;3.40;;;1.30;;
8881;SDS011;4477;48.736;9.176;2022-10-16T08:34:06;2.30;;;1.40;;
8881;SDS011;4477;48.736;9.176;2022-10-16T08:36:33;3.00;;;1.40;;
8881;SDS011;4477;48.736;9.176;2022-10-16T08:39:00;1.50;;;1.10;;
8881;SDS011;4477;48.736;9.176;2022-10-16T08:41:38;2.73;;;1.40;;
8881;SDS011;4477;48.736;9.176;2022-10-16T08:44:43;4.83;;;1.43;;
8881;SDS011;4477;48.736;9.176;2022-10-16T08:47:35;3.53;;;1.50;;
8881;SDS011;4477;48.736;9.176;2022-10-16T08:50:12;6.00;;;1.80;;
8881;SDS011;4477;48.736;9.176;2022-10-16T08:52:44;8.83;;;1.70;;
8881;SDS011;4477;48.736;9.176;2022-10-16T08:55:16;4.17;;;1.57;;
8881;SDS011;4477;48.736;9.176;2022-10-16T08:57:52;3.90;;;1.50;;
8881;SDS011;4477;48.736;9.176;2022-10-16T09:00:19;2.20;;;1.40;;
8881;SDS011;4477;48.736;9.176;2022-10-16T09:02:49;3.47;;;1.37;;
8881;SDS011;4477;48.736;9.176;2022-10-16T09:05:27;2.53;;;1.33;;
8881;SDS011;4477;48.736;9.176;2022-10-16T09:08:17;2.73;;;1.60;;
8881;SDS011;4477;48.736;9.176;2022-10-16T09:10:54;4.87;;;1.30;;
8881;SDS011;4477;48.736;9.176;2022-10-16T09:13:26;1.87;;;1.30;;
8881;SDS011;4477;48.736;9.176;2022-10-16T09:15:58;2.30;;;1.30;;
8881;SDS011;4477;48.736;9.176;2022-10-16T09:18:30;2.57;;;1.20;;
8881;SDS011;4477;48.736;9.176;2022-10-16T09:21:06;6.27;;;1.50;;
8881;SDS011;4477;48.736;9.176;2022-10-16T09:23:40;3.07;;;1.77;;
8881;SDS011;4477;48.736;9.176;2022-10-16T09:26:09;3.10;;;1.40;;
8881;SDS011;4477;48.736;9.176;2022-10-16T09:28:39;3.93;;;1.50;;
8881;SDS011;4477;48.736;9.176;2022-10-16T09:31:09;3.13;;;1.23;;
8881;SDS011;4477;48.736;9.176;2022-10-16T09:33:41;6.07;;;1.60;;
8881;SDS011;4477;48.736;9.176;2022-10-16T09:36:08;4.13;;;1.33;;
8881;SDS011;4477;48.736;9.176;2022-10-16T09:38:36;2.23;;;1.50;;
8881;SDS011;4477;48.736;9.176;2022-10-16T09:41:10;5.78;;;1.40;;
8881;SDS011;4477;48.736;9.176;2022-10-16T09:43:46;3.70;;;1.08;;
8881;SDS011;4477;48.736;9.176;2022-10-16T09:46:21;3.97;;;1.13;;
8881;SDS011;4477;48.736;9.176;2022-10-16T09:48:54;3.72;;;1.35;;
8881;SDS011;4477;48.736;9.176;2022-10-16T09:51:24;3.15;;;1.17;;
8881;SDS011;4477;48.736;9.176;2022-10-16T09:53:57;6.20;;;1.70;;
8881;SDS011;4477;48.736;9.176;2022-10-16T09:56:26;2.90;;;0.90;;
8881;SDS011;4477;48.736;9.176;2022-10-16T09:58:56;3.72;;;1.20;;
8881;SDS011;4477;48.736;9.176;2022-10-16T10:01:27;3.25;;;1.30;;
8881;SDS011;4477;48.736;9.176;2022-10-16T10:03:57;4.43;;;1.02;;
8881;SDS011;4477;48.736;9.176;2022-10-16T10:06:28;3.13;;;1.10;;
8881;SDS011;4477;48.736;9.176;2022-10-16T10:08:58;2.58;;;1.13;;
8881;SDS011;4477;48.736;9.176;2022-10-16T10:11:41;3.53;;;0.93;;
8881;SDS011;4477;48.736;9.176;2022-10-16T10:14:18;6.70;;;1.20;;
8881;SDS011;4477;48.736;9.176;2022-10-16T10:16:47;3.65;;;1.08;;
8881;SDS011;4477;48.736;9.176;2022-10-16T10:19:15;2.20;;;1.00;;
8881;SDS011;4477;48.736;9.176;2022-10-16T10:21:43;2.45;;;1.30;;
8881;SDS011;4477;48.736;9.176;2022-10-16T10:24:11;3.10;;;1.20;;
8881;SDS011;4477;48.736;9.176;2022-10-16T10:26:39;5.93;;;1.20;;
8881;SDS011;4477;48.736;9.176;2022-10-16T10:29:14;1.65;;;1.10;;
8881;SDS011;4477;48.736;9.176;2022-10-16T10:31:51;2.42;;;1.02;;
8881;SDS011;4477;48.736;9.176;2022-10-16T10:34:32;2.63;;;0.98;;
8881;SDS011;4477;48.736;9.176;2022-10-16T10:39:58;4.25;;;1.10;;
8881;SDS011;4477;48.736;9.176;2022-10-16T10:42:40;2.50;;;0.93;;
8881;SDS011;4477;48.736;9.176;2022-10-16T10:45:20;2.45;;;1.23;;
8881;SDS011;4477;48.736;9.176;2022-10-16T10:47:58;1.65;;;1.05;;
8881;SDS011;4477;48.736;9.176;2022-10-16T10:50:34;3.45;;;1.05;;
8881;SDS011;4477;48.736;9.176;2022-10-16T10:53:09;1.88;;;1.00;;
8881;SDS011;4477;48.736;9.176;2022-10-16T10:55:45;1.27;;;0.90;;
8881;SDS011;4477;48.736;9.176;2022-10-16T10:58:27;3.33;;;3.00;;
8881;SDS011;4477;48.736;9.176;2022-10-16T11:01:18;7.20;;;6.60;;
8881;SDS011;4477;48.736;9.176;2022-10-16T11:03:57;3.25;;;2.95;;
8881;SDS011;4477;48.736;9.176;2022-10-16T11:06:33;1.15;;;1.02;;
8881;SDS011;4477;48.736;9.176;2022-10-16T11:09:06;6.28;;;5.75;;
8881;SDS011;4477;48.736;9.176;2022-10-16T11:11:40;1.88;;;1.05;;
8881;SDS011;4477;48.736;9.176;2022-10-16T11:14:11;1.38;;;1.10;;
8881;SDS011;4477;48.736;9.176;2022-10-16T11:16:45;1.33;;;1.10;;
8881;SDS011;4477;48.736;9.176;2022-10-16T11:19:21;4.57;;;1.10;;
8881;SDS011;4477;48.736;9.176;2022-10-16T11:22:00;1.48;;;1.00;;
8881;SDS011;4477;48.736;9.176;2022-10-16T11:24:32;2.55;;;0.82;;
8881;SDS011;4477;48.736;9.176;2022-10-16T11:27:04;2.10;;;0.98;;
8881;SDS011;4477;48.736;9.176;2022-10-16T11:29:35;3.00;;;1.20;;
8881;SDS011;4477;48.736;9.176;2022-10-16T11:32:16;2.47;;;1.17;;
8881;SDS011;4477;48.736;9.176;2022-10-16T11:34:49;3.15;;;1.02;;
8881;SDS011;4477;48.736;9.176;2022-10-16T11:37:21;2.78;;;1.00;;
8881;SDS011;4477;48.736;9.176;2022-10-16T11:39:54;2.38;;;1.15;;
8881;SDS011;4477;48.736;9.176;2022-10-16T11:42:26;2.20;;;1.30;;
8881;SDS011;4477;48.736;9.176;2022-10-16T11:45:00;3.15;;;0.98;;
8881;SDS011;4477;48.736;9.176;2022-10-16T11:47:36;2.22;;;1.13;;
8881;SDS011;4477;48.736;9.176;2022-10-16T11:50:10;1.63;;;1.10;;
8881;SDS011;4477;48.736;9.176;2022-10-16T11:52:48;2.25;;;1.20;;
8881;SDS011;4477;48.736;9.176;2022-10-16T11:55:22;2.75;;;1.25;;
8881;SDS011;4477;48.736;9.176;2022-10-16T11:57:57;1.75;;;1.20;;
8881;SDS011;4477;48.736;9.176;2022-10-16T12:00:28;1.27;;;1.15;;
8881;SDS011;4477;48.736;9.176;2022-10-16T12:03:03;2.40;;;1.13;;
8881;SDS011;4477;48.736;9.176;2022-10-16T12:05:43;2.63;;;1.02;;
8881;SDS011;4477;48.736;9.176;2022-10-16T12:08:21;2.70;;;0.90;;
8881;SDS011;4477;48.736;9.176;2022-10-16T12:10:50;2.28;;;1.02;;
8881;SDS011;4477;48.736;9.176;2022-10-16T12:13:27;2.33;;;1.00;;
8881;SDS011;4477;48.736;9.176;2022-10-16T12:16:19;3.20;;;1.25;;
8881;SDS011;4477;48.736;9.176;2022-10-16T12:19:02;2.03;;;0.90;;
8881;SDS011;4477;48.736;9.176;2022-10-16T12:21:36;3.05;;;0.95;;
8881;SDS011;4477;48.736;9.176;2022-10-16T12:24:03;1.17;;;0.90;;
8881;SDS011;4477;48.736;9.176;2022-10-16T12:26:31;2.97;;;0.80;;
8881;SDS011;4477;48.736;9.176;2022-10-16T12:29:11;1.85;;;0.90;;
8881;SDS011;4477;48.736;9.176;2022-10-16T12:31:44;1.58;;;1.05;;
8881;SDS011;4477;48.736;9.176;2022-10-16T12:34:19;2.17;;;1.00;;
8881;SDS011;4477;48.736;9.176;2022-10-16T12:36:48;1.73;;;0.80;;
8881;SDS011;4477;48.736;9.176;2022-10-16T12:39:20;1.20;;;1.00;;
8881;SDS011;4477;48.736;9.176;2022-10-16T12:41:59;2.35;;;0.90;;
8881;SDS011;4477;48.736;9.176;2022-10-16T12:44:31;3.17;;;0.93;;
8881;SDS011;4477;48.736;9.176;2022-10-16T12:47:00;2.88;;;1.10;;
8881;SDS011;4477;48.736;9.176;2022-10-16T12:49:34;3.15;;;0.93;;
8881;SDS011;4477;48.736;9.176;2022-10-16T12:52:04;4.43;;;1.00;;
8881;SDS011;4477;48.736;9.176;2022-10-16T12:54:46;6.20;;;1.20;;
8881;SDS011;4477;48.736;9.176;2022-10-16T12:57:25;2.10;;;1.08;;
8881;SDS011;4477;48.736;9.176;2022-10-16T13:00:04;1.40;;;1.17;;
8881;SDS011;4477;48.736;9.176;2022-10-16T13:02:48;2.25;;;1.23;;
8881;SDS011;4477;48.736;9.176;2022-10-16T13:05:38;2.45;;;1.13;;
8881;SDS011;4477;48.736;9.176;2022-10-16T13:08:18;1.75;;;1.10;;
8881;SDS011;4477;48.736;9.176;2022-10-16T13:10:57;1.58;;;1.00;;
8881;SDS011;4477;48.736;9.176;2022-10-16T13:16:35;2.53;;;1.00;;
8881;SDS011;4477;48.736;9.176;2022-10-16T13:19:16;2.90;;;1.40;;
8881;SDS011;4477;48.736;9.176;2022-10-16T13:21:56;2.50;;;1.05;;
8881;SDS011;4477;48.736;9.176;2022-10-16T13:24:35;1.70;;;1.10;;
8881;SDS011;4477;48.736;9.176;2022-10-16T13:27:06;5.75;;;1.63;;
8881;SDS011;4477;48.736;9.176;2022-10-16T13:29:34;2.40;;;1.20;;
8881;SDS011;4477;48.736;9.176;2022-10-16T13:32:06;1.98;;;0.88;;
8881;SDS011;4477;48.736;9.176;2022-10-16T13:34:41;2.35;;;1.10;;
8881;SDS011;4477;48.736;9.176;2022-10-16T13:37:16;2.90;;;1.10;;
8881;SDS011;4477;48.736;9.176;2022-10-16T13:39:45;2.28;;;1.17;;
8881;SDS011;4477;48.736;9.176;2022-10-16T13:42:13;1.20;;;1.10;;
8881;SDS011;4477;48.736;9.176;2022-10-16T13:44:45;3.85;;;1.30;;
8881;SDS011;4477;48.736;9.176;2022-10-16T13:47:16;1.55;;;1.27;;
8881;SDS011;4477;48.736;9.176;2022-10-16T13:49:43;2.25;;;1.20;;
8881;SDS011;4477;48.736;9.176;2022-10-16T13:52:19;2.17;;;1.20;;
8881;SDS011;4477;48.736;9.176;2022-10-16T13:54:47;2.67;;;1.40;;
8881;SDS011;4477;48.736;9.176;2022-10-16T13:57:14;3.47;;;1.42;;
8881;SDS011;4477;48.736;9.176;2022-10-16T13:59:41;2.35;;;1.23;;
8881;SDS011;4477;48.736;9.176;2022-10-16T14:02:14;3.13;;;1.25;;
8881;SDS011;4477;48.736;9.176;2022-10-16T14:04:46;2.55;;;1.45;;
8881;SDS011;4477;48.736;9.176;2022-10-16T14:07:14;1.98;;;1.30;;
8881;SDS011;4477;48.736;9.176;2022-10-16T14:09:47;2.28;;;1.25;;
8881;SDS011;4477;48.736;9.176;2022-10-16T14:12:15;3.50;;;1.70;;
8881;SDS011;4477;48.736;9.176;2022-10-16T14:14:45;1.52;;;1.02;;
8881;SDS011;4477;48.736;9.176;2022-10-16T14:17:13;2.95;;;1.50;;
8881;SDS011;4477;48.736;9.176;2022-10-16T14:19:40;2.88;;;1.50;;
8881;SDS011;4477;48.736;9.176;2022-10-16T14:22:21;3.78;;;1.50;;
8881;SDS011;4477;48.736;9.176;2022-10-16T14:24:57;3.60;;;1.60;;
8881;SDS011;4477;48.736;9.176;2022-10-16T14:27:26;2.60;;;1.48;;
8881;SDS011;4477;48.736;9.176;2022-10-16T14:30:08;4.68;;;1.30;;
8881;SDS011;4477;48.736;9.176;2022-10-16T14:32:40;5.63;;;2.30;;
8881;SDS011;4477;48.736;9.176;2022-10-16T14:35:21;2.95;;;2.33;;
8881;SDS011;4477;48.736;9.176;2022-10-16T14:37:51;2.85;;;1.50;;
8881;SDS011;4477;48.736;9.176;2022-10-16T14:40:20;4.53;;;1.67;;
8881;SDS011;4477;48.736;9.176;2022-10-16T14:42:50;4.97;;;1.90;;
8881;SDS011;4477;48.736;9.176;2022-10-16T14:45:18;5.10;;;1.55;;
8881;SDS011;4477;48.736;9.176;2022-10-16T14:47:48;7.57;;;2.70;;
8881;SDS011;4477;48.736;9.176;2022-10-16T14:50:17;3.47;;;1.80;;
8881;SDS011;4477;48.736;9.176;2022-10-16T14:52:44;5.05;;;1.63;;
8881;SDS011;4477;48.736;9.176;2022-10-16T14:55:11;2.47;;;1.45;;
8881;SDS011;4477;48.736;9.176;2022-10-16T14:57:39;3.60;;;1.70;;
8881;SDS011;4477;48.736;9.176;2022-10-16T15:00:09;1.42;;;1.30;;
8881;SDS011;4477;48.736;9.176;2022-10-16T15:02:42;2.78;;;1.50;;
8881;SDS011;4477;48.736;9.176;2022-10-16T15:05:11;4.28;;;2.65;;
8881;SDS011;4477;48.736;9.176;2022-10-16T15:07:41;8.05;;;1.92;;
8881;SDS011;4477;48.736;9.176;2022-10-16T15:10:11;5.22;;;1.80;;
8881;SDS011;4477;48.736;9.176;2022-10-16T15:12:40;5.30;;;2.25;;
8881;SDS011;4477;48.736;9.176;2022-10-16T15:17:56;3.65;;;2.30;;
8881;SDS011;4477;48.736;9.176;2022-10-16T15:20:26;4.82;;;2.00;;
8881;SDS011;4477;48.736;9.176;2022-10-16T15:22:53;9.35;;;2.13;;
8881;SDS011;4477;48.736;9.176;2022-10-16T15:25:27;6.57;;;2.30;;
8881;SDS011;4477;48.736;9.176;2022-10-16T15:27:57;5.57;;;2.03;;
8881;SDS011;4477;48.736;9.176;2022-10-16T15:30:24;3.28;;;1.83;;
8881;SDS011;4477;48.736;9.176;2022-10-16T15:32:51;8.70;;;2.00;;
8881;SDS011;4477;48.736;9.176;2022-10-16T15:35:18;2.63;;;1.50;;
8881;SDS011;4477;48.736;9.176;2022-10-16T15:37:46;4.45;;;2.05;;
8881;SDS011;4477;48.736;9.176;2022-10-16T15:40:13;3.88;;;1.98;;
8881;SDS011;4477;48.736;9.176;2022-10-16T15:42:41;3.58;;;1.70;;
8881;SDS011;4477;48.736;9.176;2022-10-16T15:45:10;5.22;;;1.90;;